createdAt,value
2023-03-24T00:00:31.018Z,100972.63
2023-03-24T00:03:01.466Z,100984.56
2023-03-24T00:05:30.507Z,100977.56
2023-03-24T00:08:05.236Z,100985.34
2023-03-24T00:10:34.735Z,100980.97
2023-03-24T00:13:02.520Z,100983.44
2023-03-24T00:15:30.276Z,100982.63
2023-03-24T00:17:58.557Z,100995.56
2023-03-24T00:20:26.150Z,100998.69
2023-03-24T00:22:59.209Z,100999.56
2023-03-24T00:25:29.374Z,101001.41
2023-03-24T00:27:57.537Z,101003.22
2023-03-24T00:30:25.346Z,101004.03
2023-03-24T00:32:53.110Z,101004.81
2023-03-24T00:35:20.493Z,101008.22
2023-03-24T00:37:47.205Z,101001.47
2023-03-24T00:40:17.407Z,101000.56
2023-03-24T00:42:46.276Z,100997.88
2023-03-24T00:45:18.292Z,100992.56
2023-03-24T00:47:46.634Z,100995.97
2023-03-24T00:50:15.917Z,100997.75
2023-03-24T00:52:44.361Z,100993.63
2023-03-24T00:55:16.138Z,100994.72
2023-03-24T00:57:50.653Z,100992.19
2023-03-24T01:00:24.263Z,100998.22
2023-03-24T01:02:53.829Z,100993.03
2023-03-24T01:05:23.472Z,100998.06
2023-03-24T01:07:56.398Z,100997.03
2023-03-24T01:10:27.003Z,101005.63
2023-03-24T01:12:56.271Z,101011.72
2023-03-24T01:15:26.599Z,101008.06
2023-03-24T01:17:54.938Z,101007.75
2023-03-24T01:20:23.844Z,100999.72
2023-03-24T01:22:51.745Z,100986.50
2023-03-24T01:25:21.430Z,100983.91
2023-03-24T01:27:50.258Z,100986.50
2023-03-24T01:30:19.945Z,100976.38
2023-03-24T01:32:48.261Z,100963.59
2023-03-24T01:35:16.475Z,100953.16
2023-03-24T01:37:44.908Z,100951.28
2023-03-24T01:40:21.134Z,100945.25
2023-03-24T01:42:49.448Z,100934.22
2023-03-24T01:45:54.029Z,100942.06
2023-03-24T01:48:29.893Z,100941.22
2023-03-24T01:51:12.989Z,100950.63
2023-03-24T01:53:44.477Z,100947.97
2023-03-24T01:56:12.247Z,100945.25
2023-03-24T01:58:42.721Z,100945.03
2023-03-24T02:01:11.014Z,100950.63
2023-03-24T02:03:40.297Z,100949.66
2023-03-24T02:06:08.627Z,100953.88
2023-03-24T02:08:38.644Z,100950.16
2023-03-24T02:11:06.682Z,100950.91
2023-03-24T02:13:35.145Z,100947.31
2023-03-24T02:16:14.725Z,100949.16
2023-03-24T02:18:52.673Z,100951.00
2023-03-24T02:21:44.689Z,100944.44
2023-03-24T02:24:49.065Z,100944.50
2023-03-24T02:27:37.459Z,100940.19
2023-03-24T02:30:10.676Z,100942.59
2023-03-24T02:33:01.417Z,100938.94
2023-03-24T02:35:30.976Z,100934.25
2023-03-24T02:38:26.585Z,100932.34
2023-03-24T02:41:11.508Z,100937.69
2023-03-24T02:43:58.723Z,100934.41
2023-03-24T02:46:56.775Z,100928.66
2023-03-24T02:49:35.280Z,100933.94
2023-03-24T02:52:05.446Z,100934.03
2023-03-24T02:54:58.857Z,100934.19
2023-03-24T02:57:45.245Z,100923.06
2023-03-24T03:00:35.354Z,100915.31
2023-03-24T03:03:11.493Z,100916.34
2023-03-24T03:06:18.351Z,100927.13
2023-03-24T03:08:56.561Z,100922.31
2023-03-24T03:11:24.601Z,100924.66
2023-03-24T03:13:55.825Z,100920.38
2023-03-24T03:16:25.626Z,100913.38
2023-03-24T03:18:56.174Z,100922.75
2023-03-24T03:21:24.896Z,100905.81
2023-03-24T03:23:59.481Z,100910.78
2023-03-24T03:26:32.817Z,100913.38
2023-03-24T03:29:25.691Z,100905.50
2023-03-24T03:31:59.782Z,100907.41
2023-03-24T03:34:32.017Z,100909.78
2023-03-24T03:37:31.420Z,100911.34
2023-03-24T03:40:00.081Z,100904.63
2023-03-24T03:42:27.847Z,100902.25
2023-03-24T03:44:55.686Z,100904.91
2023-03-24T03:47:24.298Z,100897.09
2023-03-24T03:49:51.528Z,100885.75
2023-03-24T03:52:18.707Z,100898.75
2023-03-24T03:54:45.408Z,100890.16
2023-03-24T03:57:13.927Z,100897.22
2023-03-24T03:59:41.905Z,100897.91
2023-03-24T04:02:28.310Z,100889.44
2023-03-24T04:05:06.814Z,100893.78
2023-03-24T04:07:44.148Z,100894.75
2023-03-24T04:10:41.959Z,100899.28
2023-03-24T04:13:15.398Z,100897.69
2023-03-24T04:15:44.943Z,100896.13
2023-03-24T04:18:25.556Z,100901.97
2023-03-24T04:20:57.865Z,100898.19
2023-03-24T04:23:33.925Z,100894.50
2023-03-24T04:26:16.370Z,100892.38
2023-03-24T04:29:05.067Z,100895.63
2023-03-24T04:31:40.428Z,100895.06
2023-03-24T04:34:29.416Z,100896.16
2023-03-24T04:37:13.780Z,100906.34
2023-03-24T04:39:42.789Z,100905.25
2023-03-24T04:42:23.438Z,100905.06
2023-03-24T04:45:03.228Z,100909.22
2023-03-24T04:47:32.021Z,100905.53
2023-03-24T04:50:03.563Z,100906.16
2023-03-24T04:52:31.186Z,100901.34
2023-03-24T04:54:58.328Z,100894.69
2023-03-24T04:57:27.937Z,100896.63
2023-03-24T04:59:55.816Z,100895.88
2023-03-24T05:02:24.114Z,100897.72
2023-03-24T05:04:51.587Z,100896.97
2023-03-24T05:07:19.747Z,100895.31
2023-03-24T05:09:47.440Z,100899.66
2023-03-24T05:12:14.890Z,100896.16
2023-03-24T05:14:43.089Z,100903.72
2023-03-24T05:17:10.732Z,100908.56
2023-03-24T05:19:39.182Z,100917.31
2023-03-24T05:22:07.509Z,100926.22
2023-03-24T05:24:37.854Z,100934.47
2023-03-24T05:27:05.818Z,100934.28
2023-03-24T05:29:33.904Z,100922.91
2023-03-24T05:32:01.825Z,100926.28
2023-03-24T05:34:30.015Z,100935.00
2023-03-24T05:36:57.467Z,100933.06
2023-03-24T05:39:25.544Z,100941.38
2023-03-24T05:41:53.594Z,100940.72
2023-03-24T05:44:21.621Z,100938.50
2023-03-24T05:46:50.357Z,100944.78
2023-03-24T05:49:18.565Z,100942.53
2023-03-24T05:52:06.027Z,100946.22
2023-03-24T05:54:34.100Z,100949.13
2023-03-24T05:57:02.073Z,100954.69
2023-03-24T05:59:30.442Z,100949.78
2023-03-24T06:01:58.488Z,100954.47
2023-03-24T06:04:29.944Z,100957.34
2023-03-24T06:07:18.368Z,100962.69
2023-03-24T06:09:47.651Z,100965.28
2023-03-24T06:12:16.340Z,100957.59
2023-03-24T06:14:45.419Z,100958.13
2023-03-24T06:17:15.162Z,100963.97
2023-03-24T06:19:50.055Z,100954.44
2023-03-24T06:22:19.109Z,100947.22
2023-03-24T06:24:47.992Z,100950.03
2023-03-24T06:27:15.751Z,100942.50
2023-03-24T06:29:43.710Z,100954.75
2023-03-24T06:32:11.427Z,100955.72
2023-03-24T06:34:40.510Z,100960.22
2023-03-24T06:37:08.027Z,100962.94
2023-03-24T06:39:36.810Z,100965.56
2023-03-24T06:42:05.265Z,100962.38
2023-03-24T06:44:33.099Z,100958.13
2023-03-24T06:47:00.561Z,100967.03
2023-03-24T06:49:28.230Z,100972.38
2023-03-24T06:51:56.297Z,100969.09
2023-03-24T06:54:24.403Z,100963.28
2023-03-24T06:56:53.051Z,100959.28
2023-03-24T06:59:23.810Z,100963.75
2023-03-24T07:02:14.377Z,100960.53
2023-03-24T07:04:43.073Z,100958.88
2023-03-24T07:07:38.168Z,100967.56
2023-03-24T07:09:58.448Z,100969.72
2023-03-24T07:12:26.490Z,100978.63
2023-03-24T07:14:53.918Z,100983.22
2023-03-24T07:17:25.342Z,100985.28
2023-03-24T07:19:53.275Z,100992.41
2023-03-24T07:22:20.927Z,100982.16
2023-03-24T07:24:48.962Z,100990.19
2023-03-24T07:27:16.943Z,100991.34
2023-03-24T07:29:47.980Z,100989.22
2023-03-24T07:32:16.164Z,100999.03
2023-03-24T07:34:46.050Z,100985.47
2023-03-24T07:37:13.597Z,100992.69
2023-03-24T07:39:41.355Z,100992.06
2023-03-24T07:42:11.039Z,100993.88
2023-03-24T07:44:39.943Z,100989.66
2023-03-24T07:47:11.380Z,100994.09
2023-03-24T07:49:39.320Z,100991.53
2023-03-24T07:52:07.214Z,100995.00
2023-03-24T07:54:34.835Z,100984.63
2023-03-24T07:57:03.040Z,100986.34
2023-03-24T07:59:30.498Z,100988.09
2023-03-24T08:01:59.894Z,100987.25
2023-03-24T08:04:29.036Z,100989.03
2023-03-24T08:06:57.278Z,100991.53
2023-03-24T08:09:25.095Z,100982.03
2023-03-24T08:11:53.158Z,100976.03
2023-03-24T08:14:21.216Z,100974.31
2023-03-24T08:16:48.979Z,100974.41
2023-03-24T08:19:16.530Z,100974.38
2023-03-24T08:21:44.264Z,100983.88
2023-03-24T08:24:12.007Z,100984.75
2023-03-24T08:26:40.267Z,100983.06
2023-03-24T08:29:08.302Z,100978.00
2023-03-24T08:31:36.741Z,100977.25
2023-03-24T08:34:04.810Z,100979.00
2023-03-24T08:36:32.982Z,100980.78
2023-03-24T08:39:01.499Z,100982.56
2023-03-24T08:41:37.134Z,100986.22
2023-03-24T08:44:06.708Z,100978.59
2023-03-24T08:46:34.544Z,100994.09
2023-03-24T08:49:02.705Z,100985.47
2023-03-24T08:51:34.509Z,100982.06
2023-03-24T08:54:03.922Z,100976.88
2023-03-24T08:56:31.926Z,100985.53
2023-03-24T08:58:59.737Z,100994.28
2023-03-24T09:01:28.433Z,100992.53
2023-03-24T09:03:56.331Z,100992.53
2023-03-24T09:06:24.542Z,100991.75
2023-03-24T09:08:52.576Z,100986.59
2023-03-24T09:11:20.969Z,100993.53
2023-03-24T09:13:49.104Z,100990.91
2023-03-24T09:16:16.890Z,100994.50
2023-03-24T09:18:44.616Z,100984.16
2023-03-24T09:21:12.359Z,100981.63
2023-03-24T09:23:40.495Z,100987.75
2023-03-24T09:26:11.650Z,100985.13
2023-03-24T09:28:39.710Z,100986.09
2023-03-24T09:31:07.817Z,100979.19
2023-03-24T09:33:35.367Z,100979.16
2023-03-24T09:36:03.178Z,100980.94
2023-03-24T09:38:31.324Z,100982.69
2023-03-24T09:41:03.036Z,100982.72
2023-03-24T09:43:54.499Z,100977.53
2023-03-24T09:46:34.766Z,100978.41
2023-03-24T09:49:01.461Z,100972.28
2023-03-24T09:51:41.476Z,100969.72
2023-03-24T09:54:08.154Z,100977.53
2023-03-24T09:56:37.982Z,100969.72
2023-03-24T09:59:07.313Z,100965.38
2023-03-24T10:01:35.417Z,100969.72
2023-03-24T10:04:03.311Z,100981.81
2023-03-24T10:06:38.637Z,100979.19
2023-03-24T10:09:20.408Z,100988.59
2023-03-24T10:11:47.266Z,100990.31
2023-03-24T10:14:27.117Z,100983.41
2023-03-24T10:17:01.702Z,100981.78
2023-03-24T10:19:42.766Z,100979.28
2023-03-24T10:22:16.882Z,100972.41
2023-03-24T10:25:08.293Z,100968.09
2023-03-24T10:27:42.701Z,100961.13
2023-03-24T10:30:24.310Z,100959.41
2023-03-24T10:32:52.421Z,100962.00
2023-03-24T10:35:28.681Z,100951.56
2023-03-24T10:37:58.768Z,100954.19
2023-03-24T10:40:33.201Z,100943.75
2023-03-24T10:43:07.230Z,100947.25
2023-03-24T10:45:39.293Z,100941.16
2023-03-24T10:48:07.740Z,100942.00
2023-03-24T10:50:36.003Z,100942.88
2023-03-24T10:53:09.940Z,100941.97
2023-03-24T10:55:39.004Z,100941.97
2023-03-24T10:58:12.604Z,100956.72
2023-03-24T11:00:42.700Z,100957.41
2023-03-24T11:03:12.773Z,100944.91
2023-03-24T11:05:40.325Z,100941.84
2023-03-24T11:08:30.097Z,100929.84
2023-03-24T11:10:57.324Z,100933.66
2023-03-24T11:13:25.117Z,100925.41
2023-03-24T11:16:17.206Z,100928.91
2023-03-24T11:19:23.692Z,100922.06
2023-03-24T11:21:52.007Z,100910.09
2023-03-24T11:24:21.227Z,100923.56
2023-03-24T11:27:01.839Z,100920.38
2023-03-24T11:29:33.460Z,100911.34
2023-03-24T11:32:05.902Z,100908.03
2023-03-24T11:34:38.597Z,100911.53
2023-03-24T11:37:06.348Z,100915.34
2023-03-24T11:39:34.234Z,100901.81
2023-03-24T11:42:13.500Z,100896.53
2023-03-24T11:44:53.480Z,100875.19
2023-03-24T11:47:40.426Z,100890.22
2023-03-24T11:50:10.549Z,100886.91
2023-03-24T11:53:04.283Z,100898.34
2023-03-24T11:55:49.670Z,100898.47
2023-03-24T11:58:35.635Z,100894.03
2023-03-24T12:01:07.738Z,100882.38
2023-03-24T12:04:04.536Z,100889.94
2023-03-24T12:06:41.351Z,100883.19
2023-03-24T12:09:14.796Z,100877.13
2023-03-24T12:11:44.789Z,100880.19
2023-03-24T12:14:12.681Z,100868.16
2023-03-24T12:17:03.760Z,100865.00
2023-03-24T12:19:33.228Z,100873.00
2023-03-24T12:22:03.094Z,100867.25
2023-03-24T12:24:38.514Z,100860.59
2023-03-24T12:27:07.813Z,100856.81
2023-03-24T12:30:08.659Z,100846.72
2023-03-24T12:32:59.382Z,100838.22
2023-03-24T12:35:44.917Z,100838.59
2023-03-24T12:38:33.540Z,100828.34
2023-03-24T12:41:15.854Z,100834.28
2023-03-24T12:43:43.220Z,100836.81
2023-03-24T12:46:47.790Z,100827.69
2023-03-24T12:49:32.440Z,100834.75
2023-03-24T12:52:33.307Z,100823.59
2023-03-24T12:55:06.234Z,100806.22
2023-03-24T12:57:41.446Z,100814.34
2023-03-24T13:00:16.211Z,100806.66
2023-03-24T13:02:46.210Z,100803.56
2023-03-24T13:05:19.990Z,100804.53
2023-03-24T13:07:54.381Z,100796.63
2023-03-24T13:10:27.969Z,100795.13
2023-03-24T13:13:11.092Z,100784.38
2023-03-24T13:16:04.126Z,100780.13
2023-03-24T13:18:39.783Z,100775.69
2023-03-24T13:21:15.311Z,100784.38
2023-03-24T13:24:09.891Z,100775.00
2023-03-24T13:26:58.698Z,100771.13
2023-03-24T13:29:45.597Z,100767.97
2023-03-24T13:32:24.591Z,100760.56
2023-03-24T13:35:16.243Z,100776.69
2023-03-24T13:37:47.114Z,100760.66
2023-03-24T13:40:27.468Z,100779.72
2023-03-24T13:42:56.986Z,100760.53
2023-03-24T13:45:41.269Z,100758.03
2023-03-24T13:48:11.039Z,100761.69
2023-03-24T13:51:11.417Z,100749.34
2023-03-24T13:53:51.544Z,100757.78
2023-03-24T13:56:35.741Z,100751.94
2023-03-24T13:59:02.942Z,100747.34
2023-03-24T14:01:41.336Z,100735.72
2023-03-24T14:04:43.972Z,100728.88
2023-03-24T14:07:40.755Z,100717.75
2023-03-24T14:10:21.912Z,100716.19
2023-03-24T14:13:12.006Z,100713.31
2023-03-24T14:15:45.493Z,100716.53
2023-03-24T14:18:24.253Z,100714.13
2023-03-24T14:20:57.195Z,100710.06
2023-03-24T14:23:25.925Z,100707.50
2023-03-24T14:25:56.292Z,100713.78
2023-03-24T14:28:27.912Z,100701.72
2023-03-24T14:31:02.809Z,100702.19
2023-03-24T14:33:31.169Z,100706.22
2023-03-24T14:36:02.950Z,100698.50
2023-03-24T14:38:30.749Z,100698.13
2023-03-24T14:41:00.535Z,100683.38
2023-03-24T14:43:38.198Z,100675.28
2023-03-24T14:46:35.445Z,100670.06
2023-03-24T14:49:26.434Z,100664.06
2023-03-24T14:51:58.394Z,100668.03
2023-03-24T14:54:57.026Z,100657.84
2023-03-24T14:57:35.756Z,100656.66
2023-03-24T15:00:15.671Z,100652.78
2023-03-24T15:02:45.402Z,100650.81
2023-03-24T15:05:18.212Z,100652.94
2023-03-24T15:07:48.563Z,100658.22
2023-03-24T15:10:18.022Z,100656.84
2023-03-24T15:12:50.190Z,100660.63
2023-03-24T15:15:24.367Z,100657.25
2023-03-24T15:17:51.755Z,100668.94
2023-03-24T15:20:24.918Z,100668.72
2023-03-24T15:23:01.640Z,100663.31
2023-03-24T15:25:29.148Z,100659.19
2023-03-24T15:27:57.765Z,100656.88
2023-03-24T15:30:25.312Z,100647.16
2023-03-24T15:32:52.980Z,100659.38
2023-03-24T15:35:22.387Z,100654.97
2023-03-24T15:38:21.456Z,100653.38
2023-03-24T15:41:00.538Z,100656.78
2023-03-24T15:43:28.715Z,100647.38
2023-03-24T15:46:08.868Z,100652.00
2023-03-24T15:48:38.930Z,100655.47
2023-03-24T15:51:10.297Z,100649.59
2023-03-24T15:53:52.394Z,100648.03
2023-03-24T15:56:20.708Z,100660.28
2023-03-24T15:59:15.205Z,100654.59
2023-03-24T16:01:45.160Z,100658.09
2023-03-24T16:04:17.535Z,100656.34
2023-03-24T16:06:52.858Z,100658.19
2023-03-24T16:09:22.330Z,100664.38
2023-03-24T16:11:50.192Z,100661.84
2023-03-24T16:14:24.160Z,100654.91
2023-03-24T16:17:18.935Z,100649.63
2023-03-24T16:19:47.021Z,100652.31
2023-03-24T16:22:14.943Z,100663.66
2023-03-24T16:24:42.440Z,100666.50
2023-03-24T16:27:12.383Z,100660.44
2023-03-24T16:29:40.233Z,100666.78
2023-03-24T16:32:08.863Z,100666.84
2023-03-24T16:34:37.231Z,100663.47
2023-03-24T16:37:05.071Z,100653.91
2023-03-24T16:39:32.874Z,100655.66
2023-03-24T16:42:00.704Z,100654.88
2023-03-24T16:44:28.620Z,100659.19
2023-03-24T16:46:55.428Z,100662.69
2023-03-24T16:49:24.381Z,100660.19
2023-03-24T16:51:53.042Z,100663.63
2023-03-24T16:54:21.178Z,100666.22
2023-03-24T16:56:49.015Z,100662.72
2023-03-24T16:59:17.091Z,100660.03
2023-03-24T17:01:45.770Z,100660.88
2023-03-24T17:04:16.254Z,100655.66
2023-03-24T17:06:44.464Z,100654.81
2023-03-24T17:09:12.731Z,100658.31
2023-03-24T17:11:43.388Z,100654.88
2023-03-24T17:14:12.382Z,100655.88
2023-03-24T17:17:04.594Z,100665.53
2023-03-24T17:19:33.113Z,100671.69
2023-03-24T17:22:21.915Z,100669.13
2023-03-24T17:24:57.588Z,100664.81
2023-03-24T17:27:25.234Z,100663.13
2023-03-24T17:29:53.157Z,100663.16
2023-03-24T17:32:22.399Z,100650.16
2023-03-24T17:34:50.447Z,100650.22
2023-03-24T17:37:18.546Z,100649.44
2023-03-24T17:39:46.458Z,100645.97
2023-03-24T17:42:14.237Z,100649.47
2023-03-24T17:44:42.739Z,100644.25
2023-03-24T17:49:51.748Z,100653.88
2023-03-24T17:52:19.858Z,100654.78
2023-03-24T17:54:47.742Z,100660.00
2023-03-24T17:57:15.616Z,100652.22
2023-03-24T17:59:43.303Z,100652.25
2023-03-24T18:02:11.224Z,100654.88
2023-03-24T18:04:38.926Z,100657.56
2023-03-24T18:07:06.623Z,100643.72
2023-03-24T18:09:34.116Z,100646.34
2023-03-24T18:12:02.354Z,100653.31
2023-03-24T18:14:30.241Z,100647.28
2023-03-24T18:16:57.987Z,100639.50
2023-03-24T18:19:26.084Z,100641.22
2023-03-24T18:21:54.703Z,100636.00
2023-03-24T18:24:22.371Z,100639.53
2023-03-24T18:26:50.511Z,100645.63
2023-03-24T18:29:18.210Z,100648.25
2023-03-24T18:31:46.241Z,100656.97
2023-03-24T18:34:14.209Z,100654.34
2023-03-24T18:36:42.223Z,100647.41
2023-03-24T18:39:09.683Z,100651.75
2023-03-24T18:41:37.922Z,100644.84
2023-03-24T18:44:10.211Z,100650.06
2023-03-24T18:46:39.066Z,100650.97
2023-03-24T18:49:07.250Z,100652.69
2023-03-24T18:51:35.613Z,100649.22
2023-03-24T18:54:06.315Z,100655.28
2023-03-24T18:56:34.038Z,100647.50
2023-03-24T18:59:02.946Z,100651.84
2023-03-24T19:01:33.151Z,100653.59
2023-03-24T19:04:01.035Z,100651.00
2023-03-24T19:06:31.600Z,100657.97
2023-03-24T19:08:59.519Z,100645.78
2023-03-24T19:11:27.615Z,100645.78
2023-03-24T19:13:56.931Z,100641.44
2023-03-24T19:16:24.961Z,100647.53
2023-03-24T19:18:52.762Z,100650.16
2023-03-24T19:21:23.172Z,100641.47
2023-03-24T19:23:52.896Z,100644.94
2023-03-24T19:26:21.058Z,100632.78
2023-03-24T19:28:48.638Z,100638.03
2023-03-24T19:31:19.703Z,100632.88
2023-03-24T19:33:47.530Z,100630.25
2023-03-24T19:36:15.709Z,100638.91
2023-03-24T19:38:44.212Z,100635.44
2023-03-24T19:41:13.083Z,100638.94
2023-03-24T19:43:39.851Z,100633.72
2023-03-24T19:46:07.905Z,100634.56
2023-03-24T19:48:35.710Z,100628.50
2023-03-24T19:51:03.587Z,100629.38
2023-03-24T19:53:30.829Z,100630.25
2023-03-24T19:55:58.845Z,100644.09
2023-03-24T19:58:27.766Z,100642.38
2023-03-24T20:00:55.516Z,100641.50
2023-03-24T20:03:23.537Z,100636.28
2023-03-24T20:05:51.567Z,100644.94
2023-03-24T20:08:19.817Z,100650.16
2023-03-24T20:10:47.370Z,100638.00
2023-03-24T20:13:15.368Z,100640.63
2023-03-24T20:15:43.272Z,100639.72
2023-03-24T20:18:15.161Z,100657.06
2023-03-24T20:20:43.154Z,100647.53
2023-03-24T20:23:10.781Z,100641.47
2023-03-24T20:26:04.320Z,100653.56
2023-03-24T20:28:31.437Z,100649.22
2023-03-24T20:31:02.711Z,100652.69
2023-03-24T20:33:30.528Z,100643.13
2023-03-24T20:35:58.827Z,100646.56
2023-03-24T20:38:27.342Z,100657.81
2023-03-24T20:41:00.543Z,100661.22
2023-03-24T20:43:28.415Z,100662.91
2023-03-24T20:45:59.688Z,100651.63
2023-03-24T20:48:27.791Z,100649.88
2023-03-24T20:50:55.833Z,100646.38
2023-03-24T20:53:24.998Z,100644.66
2023-03-24T20:55:59.060Z,100653.28
2023-03-24T20:58:27.543Z,100656.75
2023-03-24T21:00:56.196Z,100660.25
2023-03-24T21:03:24.299Z,100660.28
2023-03-24T21:05:55.351Z,100662.91
2023-03-24T21:08:23.616Z,100662.06
2023-03-24T21:10:55.235Z,100662.91
2023-03-24T21:13:23.497Z,100662.00
2023-03-24T21:15:51.704Z,100658.53
2023-03-24T21:18:20.162Z,100652.47
2023-03-24T21:21:13.765Z,100653.38
2023-03-24T21:23:42.099Z,100656.84
2023-03-24T21:26:24.312Z,100647.28
2023-03-24T21:28:52.947Z,100652.47
2023-03-24T21:31:24.588Z,100651.63
2023-03-24T21:33:52.923Z,100647.28
2023-03-24T21:36:22.043Z,100651.63
2023-03-24T21:38:49.844Z,100650.72
2023-03-24T21:41:19.110Z,100649.81
2023-03-24T21:43:47.007Z,100647.22
2023-03-24T21:46:37.488Z,100645.53
2023-03-24T21:49:05.467Z,100654.16
2023-03-24T21:51:42.859Z,100656.78
2023-03-24T21:54:11.289Z,100660.25
2023-03-24T21:56:38.825Z,100656.78
2023-03-24T21:59:06.533Z,100660.25
2023-03-24T22:01:40.560Z,100657.63
2023-03-24T22:04:08.758Z,100655.00
2023-03-24T22:06:39.518Z,100649.84
2023-03-24T22:09:08.262Z,100646.38
2023-03-24T22:11:35.898Z,100652.44
2023-03-24T22:14:03.815Z,100648.09
2023-03-24T22:16:33.107Z,100647.22
2023-03-24T22:19:01.871Z,100651.63
2023-03-24T22:21:32.277Z,100644.66
2023-03-24T22:24:00.282Z,100653.34
2023-03-24T22:26:28.085Z,100643.78
2023-03-24T22:28:56.285Z,100642.88
2023-03-24T22:31:24.656Z,100652.41
2023-03-24T22:34:03.768Z,100651.56
2023-03-24T22:36:31.852Z,100646.31
2023-03-24T22:38:59.943Z,100643.75
2023-03-24T22:41:28.174Z,100647.22
2023-03-24T22:43:55.836Z,100645.50
2023-03-24T22:46:24.691Z,100638.56
2023-03-24T22:48:52.568Z,100641.13
2023-03-24T22:51:20.867Z,100640.19
2023-03-24T22:53:51.341Z,100639.31
2023-03-24T22:56:19.047Z,100642.75
2023-03-24T22:58:47.229Z,100638.38
2023-03-24T23:01:15.568Z,100640.06
2023-03-24T23:03:44.066Z,100641.75
2023-03-24T23:06:11.864Z,100640.88
2023-03-24T23:08:40.190Z,100634.69
2023-03-24T23:11:08.593Z,100637.28
2023-03-24T23:13:36.785Z,100626.03
2023-03-24T23:16:06.052Z,100632.91
2023-03-24T23:18:34.269Z,100625.91
2023-03-24T23:21:03.345Z,100624.09
2023-03-24T23:23:31.705Z,100638.69
2023-03-24T23:25:59.502Z,100642.13
2023-03-24T23:28:28.238Z,100638.66
2023-03-24T23:30:56.117Z,100648.09
2023-03-24T23:33:24.395Z,100641.94
2023-03-24T23:35:56.187Z,100653.19
2023-03-24T23:38:23.846Z,100645.44
2023-03-24T23:40:51.024Z,100644.59
2023-03-24T23:43:18.833Z,100643.78
2023-03-24T23:45:46.889Z,100639.50
2023-03-24T23:48:14.594Z,100637.75
2023-03-24T23:50:46.328Z,100634.25
2023-03-24T23:53:14.371Z,100632.47
2023-03-24T23:55:41.897Z,100635.09
2023-03-24T23:58:09.476Z,100635.97
